Cosco Melbourne — V7IF5 — position and weather

sailwx.info

Track history (hours):
 
Tides and Currents Weather Stations Pressure Air Temp Water Temp Dewpoint Dewpoint Depression Visibility Wind Speed Wind Dir Waves Ship Positions

Cosco Melbourne

Last reported at 2014-Jul-20 22:27 UTC. Time now 2014-Jul-25 23:08 UTC.
Position N 26°32' W 078°46'.

Type: Ship (hazmat cat A). MMSI: 538002366.

Date/timePositionNaut miles runAvg speedWind from/ knotsBaromVisibWave heightAir tempDewpointWater temp
2014-Jul-20 22:27N 26°32' W 078°46'0 0.0
2014-Jul-19 15:14N 26°32' W 078°46'4 1.8
2014-Jul-19 13:04N 26°28' W 078°48'4 7.0
2014-Jul-19 12:33N 26°25' W 078°50'4 0.8
2014-Jul-19 08:18N 26°22' W 078°52'0 0.2
2014-Jul-19 07:17N 26°22' W 078°52'4 1.1
2014-Jul-19 03:18N 26°26' W 078°53'2 1.3
2014-Jul-19 01:30N 26°28' W 078°54'35312.2
2014-Jul-17 20:30N 32°04' W 080°58'8 8.4
2014-Jul-17 19:33N 32°06' W 081°07'2 1.7
2014-Jul-17 18:28N 32°08' W 081°08'0 0.0
2014-Jul-17 17:28N 32°08' W 081°08'0 0.0
2014-Jul-17 16:33N 32°08' W 081°08'0 0.0
2014-Jul-17 15:33N 32°08' W 081°08'0 0.0
2014-Jul-17 14:24N 32°08' W 081°08'0 0.0
2014-Jul-17 13:17N 32°08' W 081°08'0 0.0
2014-Jul-17 12:32N 32°08' W 081°08'0 0.0
2014-Jul-17 10:06N 32°08' W 081°08'0 0.0
2014-Jul-17 09:09N 32°08' W 081°08'0 0.2
2014-Jul-17 08:28N 32°08' W 081°08'5 5.1
2014-Jul-17 07:33N 32°05' W 081°04'7 7.4
2014-Jul-17 06:33N 32°03' W 080°56'  
2014-Jul-13 15:33N 34°29' W 075°49'1615.6
2014-Jul-13 14:31N 34°40' W 075°34'1314.0
2014-Jul-13 13:33N 34°48' W 075°21'32 9.9
2014-Jul-13 10:19N 35°15' W 074°60'2112.1
2014-Jul-13 08:32N 35°36' W 074°60'1713.1
2014-Jul-13 07:15N 35°53' W 074°60'1413.0
2014-Jul-13 06:12N 36°06' W 075°05'913.3
2014-Jul-13 05:31N 36°14' W 075°11'1314.0
2014-Jul-13 04:33N 36°25' W 075°21'1313.0
2014-Jul-13 03:33N 36°36' W 075°30'1211.4
2014-Jul-13 02:32N 36°46' W 075°38'1212.8
2014-Jul-13 01:33N 36°51' W 075°51'1211.7
2014-Jul-13 00:33N 36°58' W 076°04'1212.5
2014-Jul-12 23:33N 36°59' W 076°19'6 2.6
2014-Jul-12 21:09N 36°53' W 076°21'0 0.0
2014-Jul-12 18:04N 36°53' W 076°21'4 0.7
2014-Jul-12 12:07N 36°57' W 076°20'711.9
2014-Jul-12 11:33N 37°00' W 076°13'1514.4
2014-Jul-12 10:28N 36°55' W 075°54'2010.5
2014-Jul-12 08:33N 37°06' W 075°33'1210.6
2014-Jul-12 07:28N 37°16' W 075°26'910.1
2014-Jul-12 06:33N 37°23' W 075°18'1010.4
2014-Jul-12 05:33N 37°30' W 075°09'2010.2
2014-Jul-12 03:33N 37°45' W 074°51'1010.3
2014-Jul-12 02:33N 37°53' W 074°43'1010.3
2014-Jul-12 01:33N 38°02' W 074°37'1010.1
2014-Jul-12 00:33N 38°11' W 074°31'1110.8
2014-Jul-11 23:33N 38°20' W 074°25'1211.5
2014-Jul-11 22:33N 38°31' W 074°19'1111.5
2014-Jul-11 21:33N 38°41' W 074°13'1211.5
2014-Jul-11 20:33N 38°52' W 074°06'1211.8
2014-Jul-11 19:33N 39°02' W 073°60'8 7.4
2014-Jul-11 18:32N 39°10' W 073°57'7 7.1
2014-Jul-11 17:33N 39°16' W 073°54'1313.3
2014-Jul-11 16:33N 39°29' W 073°53'1716.6
2014-Jul-11 15:33N 39°46' W 073°51'1818.2
2014-Jul-11 14:33N 40°04' W 073°50'1918.8
2014-Jul-11 13:33N 40°23' W 073°48'1111.4
2014-Jul-11 12:33N 40°31' W 073°59'1010.2
2014-Jul-11 11:33N 40°39' W 074°07'3 2.7
2014-Jul-11 10:33N 40°41' W 074°09'0 0.0
2014-Jul-11 09:33N 40°41' W 074°09'0 0.0
2014-Jul-11 08:32N 40°41' W 074°09'0 0.0
2014-Jul-11 07:29N 40°41' W 074°09'0 0.0
2014-Jul-11 06:31N 40°41' W 074°09'0 0.0
2014-Jul-11 05:31N 40°41' W 074°09'0 0.0
2014-Jul-11 04:33N 40°41' W 074°09'0 0.0
2014-Jul-11 03:30N 40°41' W 074°09'0 0.0
2014-Jul-11 02:30N 40°41' W 074°09'0 0.0
2014-Jul-11 01:32N 40°41' W 074°09'0 0.0
2014-Jul-11 00:32N 40°41' W 074°09'0 0.0
2014-Jul-10 23:22N 40°41' W 074°09'  
Track history (hours):
 
Tides and Currents Weather Stations Pressure Air Temp Water Temp Dewpoint Dewpoint Depression Visibility Wind Speed Wind Dir Waves Ship Positions

Cosco Melbourne

Last reported at 2014-Jul-20 22:27 UTC. Time now 2014-Jul-25 23:08 UTC.
Position N 26°32' W 078°46'.

Type: Ship (hazmat cat A). MMSI: 538002366.

Date/timePositionNaut miles runAvg speedWind from/ knotsBaromVisibWave heightAir tempDewpointWater temp
2014-Jul-20 22:27N 26°32' W 078°46'0 0.0
2014-Jul-19 15:14N 26°32' W 078°46'4 1.8
2014-Jul-19 13:04N 26°28' W 078°48'4 7.0
2014-Jul-19 12:33N 26°25' W 078°50'4 0.8
2014-Jul-19 08:18N 26°22' W 078°52'0 0.2
2014-Jul-19 07:17N 26°22' W 078°52'4 1.1
2014-Jul-19 03:18N 26°26' W 078°53'2 1.3
2014-Jul-19 01:30N 26°28' W 078°54'35312.2
2014-Jul-17 20:30N 32°04' W 080°58'8 8.4
2014-Jul-17 19:33N 32°06' W 081°07'2 1.7
2014-Jul-17 18:28N 32°08' W 081°08'0 0.0
2014-Jul-17 17:28N 32°08' W 081°08'0 0.0
2014-Jul-17 16:33N 32°08' W 081°08'0 0.0
2014-Jul-17 15:33N 32°08' W 081°08'0 0.0
2014-Jul-17 14:24N 32°08' W 081°08'0 0.0
2014-Jul-17 13:17N 32°08' W 081°08'0 0.0
2014-Jul-17 12:32N 32°08' W 081°08'0 0.0
2014-Jul-17 10:06N 32°08' W 081°08'0 0.0
2014-Jul-17 09:09N 32°08' W 081°08'0 0.2
2014-Jul-17 08:28N 32°08' W 081°08'5 5.1
2014-Jul-17 07:33N 32°05' W 081°04'7 7.4
2014-Jul-17 06:33N 32°03' W 080°56'  
2014-Jul-13 15:33N 34°29' W 075°49'1615.6
2014-Jul-13 14:31N 34°40' W 075°34'1314.0
2014-Jul-13 13:33N 34°48' W 075°21'32 9.9
2014-Jul-13 10:19N 35°15' W 074°60'2112.1
2014-Jul-13 08:32N 35°36' W 074°60'1713.1
2014-Jul-13 07:15N 35°53' W 074°60'1413.0
2014-Jul-13 06:12N 36°06' W 075°05'913.3
2014-Jul-13 05:31N 36°14' W 075°11'1314.0
2014-Jul-13 04:33N 36°25' W 075°21'1313.0
2014-Jul-13 03:33N 36°36' W 075°30'1211.4
2014-Jul-13 02:32N 36°46' W 075°38'1212.8
2014-Jul-13 01:33N 36°51' W 075°51'1211.7
2014-Jul-13 00:33N 36°58' W 076°04'1212.5
2014-Jul-12 23:33N 36°59' W 076°19'6 2.6
2014-Jul-12 21:09N 36°53' W 076°21'0 0.0
2014-Jul-12 18:04N 36°53' W 076°21'4 0.7
2014-Jul-12 12:07N 36°57' W 076°20'711.9
2014-Jul-12 11:33N 37°00' W 076°13'1514.4
2014-Jul-12 10:28N 36°55' W 075°54'2010.5
2014-Jul-12 08:33N 37°06' W 075°33'1210.6
2014-Jul-12 07:28N 37°16' W 075°26'910.1
2014-Jul-12 06:33N 37°23' W 075°18'1010.4
2014-Jul-12 05:33N 37°30' W 075°09'2010.2
2014-Jul-12 03:33N 37°45' W 074°51'1010.3
2014-Jul-12 02:33N 37°53' W 074°43'1010.3
2014-Jul-12 01:33N 38°02' W 074°37'1010.1
2014-Jul-12 00:33N 38°11' W 074°31'1110.8
2014-Jul-11 23:33N 38°20' W 074°25'1211.5
2014-Jul-11 22:33N 38°31' W 074°19'1111.5
2014-Jul-11 21:33N 38°41' W 074°13'1211.5
2014-Jul-11 20:33N 38°52' W 074°06'1211.8
2014-Jul-11 19:33N 39°02' W 073°60'8 7.4
2014-Jul-11 18:32N 39°10' W 073°57'7 7.1
2014-Jul-11 17:33N 39°16' W 073°54'1313.3
2014-Jul-11 16:33N 39°29' W 073°53'1716.6
2014-Jul-11 15:33N 39°46' W 073°51'1818.2
2014-Jul-11 14:33N 40°04' W 073°50'1918.8
2014-Jul-11 13:33N 40°23' W 073°48'1111.4
2014-Jul-11 12:33N 40°31' W 073°59'1010.2
2014-Jul-11 11:33N 40°39' W 074°07'3 2.7
2014-Jul-11 10:33N 40°41' W 074°09'0 0.0
2014-Jul-11 09:33N 40°41' W 074°09'0 0.0
2014-Jul-11 08:32N 40°41' W 074°09'0 0.0
2014-Jul-11 07:29N 40°41' W 074°09'0 0.0
2014-Jul-11 06:31N 40°41' W 074°09'0 0.0
2014-Jul-11 05:31N 40°41' W 074°09'0 0.0
2014-Jul-11 04:33N 40°41' W 074°09'0 0.0
2014-Jul-11 03:30N 40°41' W 074°09'0 0.0
2014-Jul-11 02:30N 40°41' W 074°09'0 0.0
2014-Jul-11 01:32N 40°41' W 074°09'0 0.0
2014-Jul-11 00:32N 40°41' W 074°09'0 0.0
2014-Jul-10 23:22N 40°41' W 074°09'  

Dump ship's entire track history